Time;durP1;ratioP1;P1;durP2;ratioP2;P2;SDS_P1;SDS_P2;PMS_P1;PMS_P2;Temp;Humidity;BMP_temperature;BMP_pressure;BME280_temperature;BME280_humidity;BME280_pressure;Samples;Min_cycle;Max_cycle;Signal;HPM_P1;HPM_P2
2024/02/23 00:01:57;;;;;;;16.90;7.20;;;;;;;-3.80;100.00;141353.58;106717;1268;25341;-70
2024/02/23 00:04:43;;;;;;;11.00;6.40;;;;;;;-3.84;100.00;141344.91;106684;1268;25366;-67
2024/02/23 00:07:28;;;;;;;15.10;7.20;;;;;;;-3.89;100.00;141330.78;106677;1268;25792;-70
2024/02/23 00:10:14;;;;;;;11.70;6.90;;;;;;;-3.95;100.00;141318.66;106668;1269;25516;-64
2024/02/23 00:13:00;;;;;;;11.90;7.00;;;;;;;-3.97;100.00;141313.70;106708;1269;25402;-66
2024/02/23 00:15:46;;;;;;;11.80;6.80;;;;;;;-3.99;100.00;141308.50;106570;1266;25367;-68
2024/02/23 00:18:32;;;;;;;11.70;6.70;;;;;;;-4.02;100.00;141300.83;106523;1267;25406;-66
2024/02/23 00:21:18;;;;;;;12.30;6.70;;;;;;;-4.06;100.00;141291.66;106537;1268;25405;-70
2024/02/23 00:24:03;;;;;;;13.20;6.60;;;;;;;-4.02;100.00;141299.09;106660;1268;25488;-70
2024/02/23 00:26:51;;;;;;;12.90;6.90;;;;;;;-4.00;100.00;141304.55;106736;1269;25487;-68
2024/02/23 00:29:37;;;;;;;14.30;6.90;;;;;;;-4.06;100.00;141290.91;106715;1269;25561;-69
2024/02/23 00:32:22;;;;;;;11.00;6.40;;;;;;;-4.09;100.00;141282.98;106700;1269;25366;-71
2024/02/23 00:35:08;;;;;;;11.80;6.30;;;;;;;-4.12;100.00;141275.06;106702;1263;25350;-69
2024/02/23 00:37:54;;;;;;;11.80;6.80;;;;;;;-4.13;100.00;141274.33;106725;1268;25376;-70
2024/02/23 00:40:39;;;;;;;12.80;7.00;;;;;;;-4.18;100.00;141262.94;106707;1268;25341;-65
2024/02/23 00:43:25;;;;;;;10.90;6.50;;;;;;;-4.17;100.00;141264.42;106791;1270;25335;-71
2024/02/23 00:46:11;;;;;;;12.30;6.00;;;;;;;-4.20;100.00;141256.75;106700;1269;25356;-63
2024/02/23 00:48:57;;;;;;;11.40;6.90;;;;;;;-4.23;100.00;141250.05;106715;1267;25325;-68
2024/02/23 00:51:43;;;;;;;14.00;6.40;;;;;;;-4.26;100.00;141243.09;106693;1268;25318;-64
2024/02/23 00:54:29;;;;;;;9.70;6.40;;;;;;;-4.24;100.00;141248.33;106790;1268;25422;-67
2024/02/23 00:57:15;;;;;;;14.80;7.10;;;;;;;-4.21;100.00;141256.25;106688;1268;25363;-73
2024/02/23 01:00:04;;;;;;;14.00;7.10;;;;;;;-4.24;100.00;141246.59;106747;1268;25360;-73
2024/02/23 01:02:50;;;;;;;12.50;6.70;;;;;;;-4.29;100.00;141234.95;106695;1268;25328;-65
2024/02/23 01:05:37;;;;;;;11.60;6.80;;;;;;;-4.29;100.00;141235.67;106684;1269;25360;-68
2024/02/23 01:08:23;;;;;;;11.80;6.40;;;;;;;-4.29;100.00;141235.20;106686;1269;25341;-70
2024/02/23 01:11:09;;;;;;;12.80;7.10;;;;;;;-4.31;100.00;141230.02;106734;1268;25360;-67
2024/02/23 01:13:55;;;;;;;11.90;7.70;;;;;;;-4.32;100.00;141226.53;106688;1269;25394;-69
2024/02/23 01:16:40;;;;;;;12.60;7.30;;;;;;;-4.36;100.00;141218.11;106673;1265;25328;-67
2024/02/23 01:19:26;;;;;;;12.50;6.90;;;;;;;-4.38;100.00;141212.17;106728;1268;25499;-64
2024/02/23 01:22:12;;;;;;;11.90;7.60;;;;;;;-4.42;100.00;141203.25;106697;1268;25528;-70
2024/02/23 01:24:58;;;;;;;12.30;7.20;;;;;;;-4.42;100.00;141204.50;106698;1268;25402;-62
2024/02/23 01:27:46;;;;;;;12.60;7.10;;;;;;;-4.42;100.00;141204.75;106706;1269;25456;-72
2024/02/23 01:30:32;;;;;;;10.20;6.40;;;;;;;-4.42;100.00;141203.50;106694;1268;25488;-65
2024/02/23 01:33:18;;;;;;;14.10;7.20;;;;;;;-4.43;100.00;141201.02;106722;1268;25359;-71
2024/02/23 01:36:05;;;;;;;13.80;7.10;;;;;;;-4.43;100.00;141201.52;106726;1269;25366;-65
2024/02/23 01:38:51;;;;;;;11.90;7.30;;;;;;;-4.43;100.00;141202.00;106699;1269;25366;-69
2024/02/23 01:41:37;;;;;;;13.80;7.50;;;;;;;-4.41;100.00;141205.97;106697;1268;25332;-65
2024/02/23 01:44:22;;;;;;;12.80;6.80;;;;;;;-4.41;100.00;141206.22;106716;1268;25565;-70
2024/02/23 01:47:08;;;;;;;13.60;7.10;;;;;;;-4.46;100.00;141193.34;106660;1276;25406;-67
2024/02/23 01:49:56;;;;;;;14.10;6.70;;;;;;;-4.48;100.00;141189.88;106713;1268;25346;-66
2024/02/23 01:52:43;;;;;;;11.30;6.60;;;;;;;-4.48;100.00;141189.39;106703;1270;25346;-73
2024/02/23 01:55:29;;;;;;;11.90;6.20;;;;;;;-4.49;100.00;141186.17;106686;1268;25409;-71
2024/02/23 01:58:17;;;;;;;12.30;6.80;;;;;;;-4.50;100.00;141183.95;106675;1272;25369;-67
2024/02/23 02:01:03;;;;;;;11.50;6.90;;;;;;;-4.46;100.00;141193.59;106748;1269;25373;-66
2024/02/23 02:03:49;;;;;;;12.60;6.90;;;;;;;-4.45;100.00;141195.81;106747;1269;25476;-69
2024/02/23 02:06:36;;;;;;;12.50;6.40;;;;;;;-4.47;100.00;141190.63;106720;1269;25486;-66
2024/02/23 02:09:22;;;;;;;9.80;6.30;;;;;;;-4.53;100.00;141177.02;106723;1268;25494;-67
2024/02/23 02:12:08;;;;;;;11.60;6.80;;;;;;;-4.53;100.00;141175.03;106722;1268;25341;-64
2024/02/23 02:14:55;;;;;;;11.80;6.60;;;;;;;-4.53;100.00;141175.03;106705;1268;25369;-67
2024/02/23 02:17:41;;;;;;;11.80;6.50;;;;;;;-4.54;100.00;141173.31;106715;1268;25400;-65
2024/02/23 02:20:31;;;;;;;14.10;7.00;;;;;;;-4.56;100.00;141168.59;106696;1269;25383;-70
2024/02/23 02:23:17;;;;;;;14.90;6.90;;;;;;;-4.59;100.00;141163.41;106720;1268;24187;-69
2024/02/23 02:26:03;;;;;;;9.50;5.80;;;;;;;-4.58;100.00;141164.88;106754;1269;25549;-68
2024/02/23 02:28:49;;;;;;;14.20;6.70;;;;;;;-4.61;100.00;141159.20;106691;1267;25357;-68
2024/02/23 02:31:37;;;;;;;12.30;6.50;;;;;;;-4.64;100.00;141151.27;106717;1268;25319;-68
2024/02/23 02:34:22;;;;;;;12.30;6.40;;;;;;;-4.65;100.00;141149.28;106670;1268;25357;-66
2024/02/23 02:37:08;;;;;;;12.00;6.70;;;;;;;-4.69;100.00;141137.41;106674;1267;25459;-65
2024/02/23 02:39:53;;;;;;;12.30;6.70;;;;;;;-4.75;100.00;141124.80;106688;1269;22670;-63
2024/02/23 02:42:39;;;;;;;12.20;6.50;;;;;;;-4.80;100.00;141111.41;106713;1269;25418;-68
2024/02/23 02:45:24;;;;;;;15.50;6.80;;;;;;;-4.86;100.00;141097.31;106722;1269;25430;-69
2024/02/23 02:48:10;;;;;;;11.40;6.30;;;;;;;-4.89;100.00;141090.39;106699;1269;25386;-68
2024/02/23 02:50:55;;;;;;;11.70;6.70;;;;;;;-4.91;100.00;141084.20;106693;1268;25462;-74
2024/02/23 02:53:41;;;;;;;12.30;7.10;;;;;;;-4.92;100.00;141081.47;106663;1269;25408;-77
2024/02/23 02:56:27;;;;;;;13.80;7.20;;;;;;;-4.90;100.00;141088.16;106748;1275;25350;-70
2024/02/23 02:59:13;;;;;;;11.20;6.70;;;;;;;-4.86;100.00;141096.58;106951;1267;25356;-64
2024/02/23 03:01:58;;;;;;;11.00;6.90;;;;;;;-4.83;100.00;141104.27;106573;1266;25407;-69
2024/02/23 03:04:48;;;;;;;13.40;7.00;;;;;;;-4.83;100.00;141104.00;106728;1270;25579;-67
2024/02/23 03:07:34;;;;;;;12.50;7.30;;;;;;;-4.83;100.00;141104.98;106623;1273;25363;-68
2024/02/23 03:10:21;;;;;;;12.90;7.60;;;;;;;-4.86;100.00;141097.81;106534;1268;25321;-66
2024/02/23 03:13:06;;;;;;;13.70;7.20;;;;;;;-4.85;100.00;141098.80;106627;1268;26570;-66
2024/02/23 03:15:52;;;;;;;10.80;6.70;;;;;;;-4.82;100.00;141106.22;106718;1268;25452;-69
2024/02/23 03:18:38;;;;;;;14.30;8.00;;;;;;;-4.84;100.00;141103.25;106734;1269;25491;-73
2024/02/23 03:21:23;;;;;;;12.60;7.40;;;;;;;-4.82;100.00;141107.45;106793;1269;25344;-66
2024/02/23 03:24:09;;;;;;;12.50;7.70;;;;;;;-4.83;100.00;141103.52;106798;1270;25366;-64
2024/02/23 03:26:55;;;;;;;12.90;7.30;;;;;;;-4.82;100.00;141106.95;106804;1269;25381;-67
2024/02/23 03:29:41;;;;;;;13.60;7.50;;;;;;;-4.80;100.00;141111.44;106725;1270;25485;-67
2024/02/23 03:32:27;;;;;;;14.80;7.10;;;;;;;-4.82;100.00;141106.97;106699;1269;25724;-70
2024/02/23 03:35:13;;;;;;;14.50;7.30;;;;;;;-4.82;100.00;141106.97;106718;1269;25376;-66
2024/02/23 03:37:59;;;;;;;12.90;7.40;;;;;;;-4.83;100.00;141105.23;106739;1263;25347;-67
2024/02/23 03:40:45;;;;;;;14.20;7.80;;;;;;;-4.84;100.00;141104.00;106667;1275;25366;-66
2024/02/23 03:43:30;;;;;;;16.40;7.10;;;;;;;-4.85;100.00;141098.80;106597;1272;25501;-67
2024/02/23 03:46:19;;;;;;;13.50;7.00;;;;;;;-4.86;100.00;141097.58;106599;1269;25452;-66
2024/02/23 03:49:06;;;;;;;14.70;8.30;;;;;;;-4.82;100.00;141106.72;106617;1269;25342;-65
2024/02/23 03:51:51;;;;;;;16.60;8.80;;;;;;;-4.78;100.00;141116.38;106611;1269;25492;-62
2024/02/23 03:54:37;;;;;;;13.30;7.40;;;;;;;-4.79;100.00;141113.41;106613;1265;25421;-65
2024/02/23 03:57:22;;;;;;;14.50;8.10;;;;;;;-4.83;100.00;141104.73;106637;1276;25331;-71
2024/02/23 04:00:09;;;;;;;15.20;8.10;;;;;;;-4.83;100.00;141105.47;106601;1271;25389;-70
2024/02/23 04:03:00;;;;;;;16.60;8.50;;;;;;;-4.81;100.00;141108.69;106626;1269;25443;-69
2024/02/23 04:05:46;;;;;;;16.10;8.50;;;;;;;-4.83;100.00;141104.00;106616;1269;25328;-65
2024/02/23 04:08:31;;;;;;;13.30;8.20;;;;;;;-4.84;100.00;141103.00;106610;1273;25359;-67
2024/02/23 04:11:16;;;;;;;16.50;8.50;;;;;;;-4.78;100.00;141117.36;106549;1269;25385;-67
2024/02/23 04:14:05;;;;;;;13.30;7.60;;;;;;;-4.78;100.00;141116.63;106724;1269;25391;-67
2024/02/23 04:16:50;;;;;;;14.40;8.50;;;;;;;-4.77;100.00;141119.34;106731;1269;25512;-69
2024/02/23 04:19:36;;;;;;;12.40;8.00;;;;;;;-4.80;100.00;141111.92;106741;1269;25366;-68
2024/02/23 04:22:22;;;;;;;13.50;8.00;;;;;;;-4.82;100.00;141106.97;106755;1269;25429;-67
2024/02/23 04:25:08;;;;;;;15.10;8.40;;;;;;;-4.78;100.00;141115.38;106725;1273;25366;-69
2024/02/23 04:27:54;;;;;;;12.00;8.10;;;;;;;-4.81;100.00;141109.69;106718;1268;25363;-66
2024/02/23 04:30:40;;;;;;;13.70;8.20;;;;;;;-4.81;100.00;141109.94;106737;1276;25428;-72
2024/02/23 04:33:25;;;;;;;15.10;8.40;;;;;;;-4.78;100.00;141116.13;106726;1266;25413;-65
2024/02/23 04:36:11;;;;;;;12.60;7.10;;;;;;;-4.78;100.00;141116.38;106752;1268;25331;-69
2024/02/23 04:38:56;;;;;;;12.10;7.20;;;;;;;-4.80;100.00;141111.91;106763;1276;25363;-69
2024/02/23 04:41:42;;;;;;;13.70;7.80;;;;;;;-4.83;100.00;141104.02;106757;1266;25390;-68
2024/02/23 04:44:28;;;;;;;14.70;8.50;;;;;;;-4.84;100.00;141102.03;106772;1271;25367;-73
2024/02/23 04:47:13;;;;;;;14.90;8.00;;;;;;;-4.84;100.00;141102.27;106772;1269;25319;-69
2024/02/23 04:49:59;;;;;;;12.70;7.60;;;;;;;-4.83;100.00;141104.75;106726;1268;25514;-71
2024/02/23 04:52:45;;;;;;;17.70;8.30;;;;;;;-4.82;100.00;141107.45;106715;1273;25450;-68
2024/02/23 04:55:31;;;;;;;13.80;7.90;;;;;;;-4.81;100.00;141110.19;106743;1269;25359;-68
2024/02/23 04:58:16;;;;;;;17.20;9.80;;;;;;;-4.81;100.00;141109.69;106745;1271;25360;-67
2024/02/23 05:01:03;;;;;;;15.70;9.50;;;;;;;-4.80;100.00;141112.66;106725;1267;25398;-64
2024/02/23 05:03:49;;;;;;;13.40;8.50;;;;;;;-4.79;100.00;141114.16;106766;1276;25338;-67
2024/02/23 05:06:35;;;;;;;15.90;8.70;;;;;;;-4.79;100.00;141112.91;106719;1266;25395;-66
2024/02/23 05:09:21;;;;;;;14.40;8.90;;;;;;;-4.77;100.00;141118.84;106738;1266;25353;-66
2024/02/23 05:12:08;;;;;;;15.20;8.60;;;;;;;-4.75;100.00;141124.53;106729;1273;25369;-65
2024/02/23 05:14:54;;;;;;;13.30;7.80;;;;;;;-4.73;100.00;141128.00;106759;1276;25363;-72
2024/02/23 05:17:40;;;;;;;11.70;8.00;;;;;;;-4.74;100.00;141125.78;106703;1270;25386;-70
2024/02/23 05:20:25;;;;;;;12.90;8.40;;;;;;;-4.73;100.00;141128.00;106709;1269;25397;-69
2024/02/23 05:23:11;;;;;;;18.40;9.30;;;;;;;-4.72;100.00;141130.23;106737;1276;25488;-66
2024/02/23 05:25:56;;;;;;;15.00;8.80;;;;;;;-4.74;100.00;141126.53;106732;1268;25382;-67
2024/02/23 05:28:42;;;;;;;14.40;9.10;;;;;;;-4.76;100.00;141121.83;106731;1276;25328;-69
2024/02/23 05:31:45;;;;;;;14.70;9.10;;;;;;;-4.78;100.00;141116.86;106717;1270;25382;-66
2024/02/23 05:34:31;;;;;;;14.60;8.00;;;;;;;-4.78;100.00;141115.88;106746;1270;25340;-70
2024/02/23 05:37:17;;;;;;;13.80;8.60;;;;;;;-4.77;100.00;141119.59;106736;1268;25425;-65
2024/02/23 05:40:07;;;;;;;13.20;8.20;;;;;;;-4.74;100.00;141126.50;106726;1274;25490;-67
2024/02/23 05:42:53;;;;;;;13.10;7.70;;;;;;;-4.71;100.00;141132.72;106574;1277;25332;-70
2024/02/23 05:45:38;;;;;;;14.10;7.80;;;;;;;-4.67;100.00;141143.59;106606;1265;25350;-70
2024/02/23 05:48:24;;;;;;;14.10;8.30;;;;;;;-4.66;100.00;141144.83;106611;1277;25341;-67
2024/02/23 05:51:10;;;;;;;13.80;7.60;;;;;;;-4.62;100.00;141156.22;106636;1274;25354;-67
2024/02/23 05:53:56;;;;;;;14.20;7.60;;;;;;;-4.58;100.00;141164.14;106595;1272;25556;-70
2024/02/23 05:56:41;;;;;;;15.70;9.30;;;;;;;-4.58;100.00;141165.61;106610;1267;25530;-75
2024/02/23 05:59:27;;;;;;;18.10;8.60;;;;;;;-4.60;100.00;141161.67;106615;1269;25411;-68
2024/02/23 06:02:13;;;;;;;13.40;9.20;;;;;;;-4.59;100.00;141163.41;106726;1269;25424;-74
2024/02/23 06:04:59;;;;;;;12.90;8.80;;;;;;;-4.55;100.00;141170.83;106711;1269;25334;-70
2024/02/23 06:07:45;;;;;;;14.90;8.90;;;;;;;-4.54;100.00;141172.55;106689;1271;25480;-70
2024/02/23 06:10:31;;;;;;;14.90;8.50;;;;;;;-4.52;100.00;141178.48;106589;1269;25421;-68
2024/02/23 06:13:17;;;;;;;14.70;8.40;;;;;;;-4.48;100.00;141188.41;106621;1272;25338;-71
2024/02/23 06:16:04;;;;;;;11.90;8.00;;;;;;;-4.43;100.00;141200.55;106610;1276;25360;-63
2024/02/23 06:18:50;;;;;;;12.40;8.70;;;;;;;-4.38;100.00;141212.66;106566;1269;25363;-68
2024/02/23 06:21:36;;;;;;;16.00;9.90;;;;;;;-4.44;100.00;141199.78;106663;1269;25351;-71
2024/02/23 06:24:22;;;;;;;14.10;9.10;;;;;;;-4.46;100.00;141192.59;106646;1273;25421;-65
2024/02/23 06:27:08;;;;;;;13.90;8.90;;;;;;;-4.48;100.00;141188.14;106668;1273;25376;-69
2024/02/23 06:29:55;;;;;;;15.60;9.30;;;;;;;-4.52;100.00;141178.50;106697;1269;25346;-69
2024/02/23 06:32:42;;;;;;;15.30;9.90;;;;;;;-4.51;100.00;141180.97;106709;1267;25366;-71
2024/02/23 06:35:28;;;;;;;17.50;10.70;;;;;;;-4.46;100.00;141192.34;106728;1270;25526;-68
2024/02/23 06:38:14;;;;;;;14.60;9.20;;;;;;;-4.42;100.00;141202.27;106730;1269;25341;-72
2024/02/23 06:40:59;;;;;;;20.50;10.00;;;;;;;-4.42;100.00;141203.75;106728;1269;25355;-68
2024/02/23 06:43:45;;;;;;;15.90;10.30;;;;;;;-4.42;100.00;141204.75;106713;1269;25581;-68
2024/02/23 06:46:32;;;;;;;14.30;9.70;;;;;;;-4.38;100.00;141214.39;106766;1263;25559;-66
2024/02/23 06:49:17;;;;;;;15.90;10.70;;;;;;;-4.34;100.00;141223.83;106558;1273;25416;-71
2024/02/23 06:52:03;;;;;;;16.90;10.30;;;;;;;-4.25;100.00;141244.11;106659;1268;26492;-66
2024/02/23 06:54:49;;;;;;;17.10;11.30;;;;;;;-4.20;100.00;141258.22;106596;1273;25328;-65
2024/02/23 06:57:34;;;;;;;17.90;10.80;;;;;;;-4.26;100.00;141242.38;106748;1269;24209;-69
2024/02/23 07:00:24;;;;;;;17.50;11.10;;;;;;;-4.34;100.00;141222.09;106726;1269;25984;-65
2024/02/23 07:03:09;;;;;;;18.20;11.00;;;;;;;-4.32;100.00;141228.27;106730;1262;25376;-67
2024/02/23 07:05:56;;;;;;;17.00;9.80;;;;;;;-4.24;100.00;141246.58;106715;1264;25825;-67
2024/02/23 07:08:42;;;;;;;15.70;10.60;;;;;;;-4.17;100.00;141265.41;106713;1266;25366;-70
2024/02/23 07:11:28;;;;;;;19.50;10.90;;;;;;;-4.22;100.00;141252.05;106691;1269;25527;-67
2024/02/23 07:14:16;;;;;;;17.70;10.90;;;;;;;-4.21;100.00;141255.00;106725;1277;25791;-68
2024/02/23 07:17:03;;;;;;;18.00;9.90;;;;;;;-4.16;100.00;141267.39;106732;1261;25350;-69
2024/02/23 07:19:50;;;;;;;18.00;11.20;;;;;;;-4.09;100.00;141283.73;106702;1265;25519;-70
2024/02/23 07:22:36;;;;;;;19.20;11.60;;;;;;;-4.07;100.00;141288.19;106740;1277;25749;-68
2024/02/23 07:25:22;;;;;;;18.30;11.40;;;;;;;-4.07;100.00;141287.45;106758;1269;25470;-73
2024/02/23 07:28:08;;;;;;;18.40;11.60;;;;;;;-4.07;100.00;141287.20;106704;1275;25369;-73
2024/02/23 07:30:54;;;;;;;20.40;11.10;;;;;;;-4.01;100.00;141303.78;106901;1269;25366;-67
2024/02/23 07:33:40;;;;;;;18.60;11.50;;;;;;;-3.97;100.00;141312.47;106682;1259;25349;-68
2024/02/23 07:36:27;;;;;;;17.20;11.00;;;;;;;-4.02;100.00;141301.06;106593;1273;25402;-69
2024/02/23 07:39:13;;;;;;;16.90;10.90;;;;;;;-4.03;100.00;141296.84;106842;1261;25462;-71
2024/02/23 07:41:59;;;;;;;15.70;10.90;;;;;;;-4.04;100.00;141296.09;106497;1267;22660;-72
2024/02/23 07:44:45;;;;;;;16.20;10.80;;;;;;;-3.98;100.00;141310.72;106546;1263;25411;-70
2024/02/23 07:47:31;;;;;;;17.80;12.40;;;;;;;-3.93;100.00;141321.84;106561;1268;25411;-66
2024/02/23 07:50:19;;;;;;;18.90;11.30;;;;;;;-4.01;100.00;141301.81;106556;1266;25474;-69
2024/02/23 07:53:05;;;;;;;20.20;11.60;;;;;;;-4.07;100.00;141287.94;106603;1270;25321;-65
2024/02/23 07:55:50;;;;;;;16.30;11.00;;;;;;;-4.02;100.00;141300.33;106918;1261;26615;-67
2024/02/23 07:58:36;;;;;;;16.60;10.40;;;;;;;-3.97;100.00;141311.72;106588;1260;25343;-70
2024/02/23 08:01:22;;;;;;;17.20;11.70;;;;;;;-4.01;100.00;141303.55;106881;1269;25400;-66
2024/02/23 08:04:08;;;;;;;18.10;10.80;;;;;;;-4.02;100.00;141301.56;106409;1260;25334;-77
2024/02/23 08:06:54;;;;;;;18.40;11.40;;;;;;;-4.03;100.00;141296.59;106423;1270;25378;-68
2024/02/23 08:09:40;;;;;;;17.10;11.50;;;;;;;-4.02;100.00;141301.06;106461;1271;25454;-65
2024/02/23 08:12:26;;;;;;;18.80;11.20;;;;;;;-4.01;100.00;141301.81;106525;1261;25494;-69
2024/02/23 08:15:13;;;;;;;17.70;11.60;;;;;;;-3.96;100.00;141314.42;106561;1270;25414;-68
2024/02/23 08:17:58;;;;;;;17.00;10.60;;;;;;;-3.93;100.00;141321.63;106518;1269;25383;-69
2024/02/23 08:20:44;;;;;;;19.30;12.80;;;;;;;-3.97;100.00;141312.22;106661;1270;25439;-68
2024/02/23 08:23:30;;;;;;;20.60;10.70;;;;;;;-3.97;100.00;141312.69;106520;1265;25395;-66
2024/02/23 08:26:16;;;;;;;19.40;11.20;;;;;;;-3.93;100.00;141322.11;106492;1277;25380;-68
2024/02/23 08:29:02;;;;;;;16.70;11.40;;;;;;;-3.93;100.00;141323.09;106584;1277;25393;-70
2024/02/23 08:31:48;;;;;;;16.50;10.90;;;;;;;-3.85;100.00;141340.20;106544;1277;25408;-70
2024/02/23 08:34:35;;;;;;;15.50;10.30;;;;;;;-3.81;100.00;141352.09;106555;1277;25475;-70
2024/02/23 08:37:21;;;;;;;18.40;11.10;;;;;;;-3.87;100.00;141336.97;106504;1277;25421;-67
2024/02/23 08:40:07;;;;;;;16.50;10.80;;;;;;;-3.83;100.00;141345.39;106560;1274;25331;-68
2024/02/23 08:42:53;;;;;;;18.30;11.20;;;;;;;-3.79;100.00;141355.56;106586;1277;25393;-69
2024/02/23 08:45:39;;;;;;;15.90;10.70;;;;;;;-3.77;100.00;141360.52;106523;1271;25324;-66
2024/02/23 08:48:25;;;;;;;17.50;11.40;;;;;;;-3.74;100.00;141368.45;106641;1276;25354;-66
2024/02/23 08:51:11;;;;;;;23.10;11.40;;;;;;;-3.75;100.00;141367.44;106523;1277;25391;-69
2024/02/23 08:54:03;;;;;;;19.70;11.90;;;;;;;-3.75;100.00;141367.20;106535;1270;25529;-67
2024/02/23 08:56:48;;;;;;;17.70;10.30;;;;;;;-3.80;100.00;141353.09;106804;1277;25430;-69
2024/02/23 08:59:34;;;;;;;20.30;11.80;;;;;;;-3.77;100.00;141362.02;106820;1274;25398;-69
2024/02/23 09:02:21;;;;;;;20.40;11.70;;;;;;;-3.84;100.00;141345.16;106615;1257;25494;-66
2024/02/23 09:05:07;;;;;;;20.30;11.70;;;;;;;-3.81;100.00;141350.84;106549;1277;25427;-68
2024/02/23 09:07:53;;;;;;;19.30;12.20;;;;;;;-3.78;100.00;141359.53;106564;1277;25423;-68
2024/02/23 09:10:39;;;;;;;18.90;10.40;;;;;;;-3.78;100.00;141358.03;106574;1261;22566;-68
2024/02/23 09:13:27;;;;;;;18.60;11.40;;;;;;;-3.75;100.00;141366.95;107306;1260;25344;-68
2024/02/23 09:16:14;;;;;;;19.00;11.20;;;;;;;-3.67;100.00;141384.30;108173;1261;23221;-67
2024/02/23 09:19:00;;;;;;;21.00;12.80;;;;;;;-3.66;100.00;141388.02;107015;1260;25457;-68
2024/02/23 09:21:46;;;;;;;19.50;11.70;;;;;;;-3.71;100.00;141376.63;106849;1261;25321;-68
2024/02/23 09:24:32;;;;;;;24.40;12.70;;;;;;;-3.72;100.00;141372.66;106578;1269;25342;-71
2024/02/23 09:27:21;;;;;;;20.70;12.60;;;;;;;-3.69;100.00;141378.84;106572;1267;25491;-70
2024/02/23 09:30:07;;;;;;;21.50;13.80;;;;;;;-3.74;100.00;141367.70;106551;1257;25346;-66
2024/02/23 09:32:54;;;;;;;20.20;13.00;;;;;;;-3.76;100.00;141362.75;106470;1278;25423;-67
2024/02/23 09:35:40;;;;;;;21.50;12.10;;;;;;;-3.68;100.00;141382.80;106452;1278;25325;-66
2024/02/23 09:38:27;;;;;;;22.10;13.20;;;;;;;-3.62;100.00;141396.42;106577;1260;182293;-67
2024/02/23 09:41:21;;;;;;;22.50;13.00;;;;;;;-3.67;100.00;141383.55;106550;1260;25412;-66
2024/02/23 09:44:09;;;;;;;20.90;11.80;;;;;;;-3.67;100.00;141384.28;106584;1257;25519;-67
2024/02/23 09:46:56;;;;;;;22.30;13.40;;;;;;;-3.62;100.00;141397.66;106853;1258;25344;-68
2024/02/23 09:49:41;;;;;;;24.20;13.50;;;;;;;-3.59;100.00;141402.89;106669;1261;25356;-69
2024/02/23 09:52:28;;;;;;;23.70;13.60;;;;;;;-3.62;100.00;141395.94;106694;1277;23260;-68
2024/02/23 09:55:14;;;;;;;22.60;12.60;;;;;;;-3.62;100.00;141395.69;106545;1273;25342;-66
2024/02/23 09:58:01;;;;;;;20.10;12.50;;;;;;;-3.63;100.00;141394.45;106576;1261;25370;-69
2024/02/23 10:00:47;;;;;;;18.90;12.10;;;;;;;-3.70;100.00;141377.11;106620;1260;25412;-67
2024/02/23 10:03:33;;;;;;;19.80;12.70;;;;;;;-3.74;100.00;141369.19;106543;1269;25352;-67
2024/02/23 10:06:18;;;;;;;20.90;12.90;;;;;;;-3.70;100.00;141378.34;106513;1261;25794;-68
2024/02/23 10:09:04;;;;;;;23.00;13.40;;;;;;;-3.66;100.00;141387.75;106894;1261;25369;-70
2024/02/23 10:11:54;;;;;;;21.40;11.80;;;;;;;-3.66;100.00;141385.77;106519;1255;25417;-68
2024/02/23 10:14:42;;;;;;;22.40;13.80;;;;;;;-3.64;100.00;141390.47;106524;1278;25357;-67
2024/02/23 10:17:29;;;;;;;23.90;13.90;;;;;;;-3.61;100.00;141398.42;106505;1267;25356;-66
2024/02/23 10:20:17;;;;;;;22.90;12.40;;;;;;;-3.65;100.00;141390.00;106513;1278;25510;-67
2024/02/23 10:23:03;;;;;;;21.90;13.50;;;;;;;-3.63;100.00;141395.17;106478;1278;25350;-67
2024/02/23 10:25:49;;;;;;;23.70;14.40;;;;;;;-3.55;100.00;141413.28;106827;1271;25343;-67
2024/02/23 10:28:38;;;;;;;20.50;13.20;;;;;;;-3.48;100.00;141429.64;106823;1273;25331;-66
2024/02/23 10:31:25;;;;;;;22.90;13.90;;;;;;;-3.46;100.00;141436.34;106519;1273;25490;-68
2024/02/23 10:34:14;;;;;;;22.70;13.70;;;;;;;-3.45;100.00;141438.81;106588;1277;25354;-71
2024/02/23 10:37:03;;;;;;;24.20;14.60;;;;;;;-3.46;100.00;141434.59;106654;1257;22536;-67
2024/02/23 10:39:51;;;;;;;23.60;14.70;;;;;;;-3.41;100.00;141447.97;106633;1261;25471;-69
2024/02/23 10:42:38;;;;;;;22.60;14.00;;;;;;;-3.41;100.00;141447.25;106596;1261;25407;-68
2024/02/23 10:45:24;;;;;;;21.90;12.80;;;;;;;-3.40;100.00;141451.19;106533;1261;25332;-69
2024/02/23 10:48:11;;;;;;;26.50;14.90;;;;;;;-3.40;100.00;141451.92;106583;1277;25331;-68
2024/02/23 10:50:58;;;;;;;22.40;14.00;;;;;;;-3.35;100.00;141462.34;106539;1260;24222;-68
2024/02/23 10:53:46;;;;;;;25.90;14.50;;;;;;;-3.29;100.00;141478.97;106799;1259;24392;-68
2024/02/23 10:56:32;;;;;;;22.30;14.20;;;;;;;-3.23;100.00;141490.34;106330;1259;25565;-68
2024/02/23 10:59:19;;;;;;;21.70;13.30;;;;;;;-3.18;100.00;141502.23;106332;1261;24313;-67
2024/02/23 11:02:07;;;;;;;22.20;13.30;;;;;;;-3.11;100.00;141519.34;106460;1260;25385;-71
2024/02/23 11:04:56;;;;;;;22.20;14.50;;;;;;;-3.04;100.00;141537.20;106427;1259;25455;-68
2024/02/23 11:07:42;;;;;;;23.40;14.60;;;;;;;-2.99;100.00;141548.34;106463;1277;25360;-69
2024/02/23 11:10:28;;;;;;;23.60;15.20;;;;;;;-2.97;100.00;141555.06;106587;1277;25359;-68
2024/02/23 11:13:15;;;;;;;23.10;13.80;;;;;;;-2.92;100.00;141565.95;106542;1257;25412;-68
2024/02/23 11:16:03;;;;;;;25.20;14.80;;;;;;;-2.98;100.00;141553.08;106508;1256;24386;-68
2024/02/23 11:18:49;;;;;;;27.60;15.70;;;;;;;-2.97;100.00;141555.30;106543;1256;25378;-67
2024/02/23 11:21:39;;;;;;;23.50;14.60;;;;;;;-2.91;100.00;141569.17;106604;1260;25381;-66
2024/02/23 11:24:29;;;;;;;24.30;15.30;;;;;;;-2.89;100.00;141573.39;106684;1270;25360;-67
2024/02/23 11:27:17;;;;;;;25.60;15.70;;;;;;;-2.84;100.00;141586.05;106649;1260;25321;-66
2024/02/23 11:30:10;;;;;;;25.50;16.00;;;;;;;-2.74;100.00;141610.58;106466;1260;25481;-67
2024/02/23 11:33:00;;;;;;;25.20;14.80;;;;;;;-2.68;100.00;141625.47;106463;1260;25394;-67
2024/02/23 11:35:49;;;;;;;27.40;17.10;;;;;;;-2.63;100.00;141636.38;106435;1261;25332;-67
2024/02/23 11:38:36;;;;;;;22.80;14.40;;;;;;;-2.56;100.00;141653.97;106591;1278;25340;-65
2024/02/23 11:41:24;;;;;;;25.70;15.00;;;;;;;-2.57;100.00;141651.50;106544;1268;24352;-69
2024/02/23 11:44:13;;;;;;;25.40;15.80;;;;;;;-2.59;100.00;141647.55;106567;1257;25363;-67
2024/02/23 11:46:59;;;;;;;22.50;14.00;;;;;;;-2.57;100.00;141651.78;106502;1261;25345;-67
2024/02/23 11:49:45;;;;;;;23.50;14.30;;;;;;;-2.58;100.00;141648.03;106590;1277;23873;-66
2024/02/23 11:52:32;;;;;;;27.10;15.30;;;;;;;-2.62;100.00;141639.11;106555;1260;25537;-67
2024/02/23 11:55:22;;;;;;;26.00;15.00;;;;;;;-2.62;100.00;141640.59;106576;1261;25962;-65
2024/02/23 11:58:12;;;;;;;29.70;15.40;;;;;;;-2.58;100.00;141649.78;106536;1257;25379;-66
2024/02/23 12:01:04;;;;;;;28.20;16.10;;;;;;;-2.56;100.00;141654.00;106582;1270;25676;-66
2024/02/23 12:03:50;;;;;;;26.60;15.00;;;;;;;-2.55;100.00;141657.20;106547;1257;25511;-67
2024/02/23 12:06:39;;;;;;;29.30;14.90;;;;;;;-2.53;100.00;141660.45;106561;1258;25369;-65
2024/02/23 12:09:25;;;;;;;32.50;16.00;;;;;;;-2.54;100.00;141657.95;106694;1260;25545;-69
2024/02/23 12:12:11;;;;;;;26.00;15.80;;;;;;;-2.52;100.00;141663.42;106603;1277;25462;-65
2024/02/23 12:14:56;;;;;;;25.60;14.10;;;;;;;-2.48;100.00;141672.83;106616;1259;26243;-67
2024/02/23 12:17:49;;;;;;;27.60;15.10;;;;;;;-2.46;100.00;141679.78;106547;1260;25328;-69
2024/02/23 12:20:35;;;;;;;26.60;15.50;;;;;;;-2.40;100.00;141692.17;106585;1259;25491;-70
2024/02/23 12:23:21;;;;;;;25.90;14.60;;;;;;;-2.42;100.00;141688.97;106764;1259;25464;-68